sensor_id;sensor_type;location;lat;lon;timestamp;P1;durP1;ratioP1;P2;durP2;ratioP2
11197;SDS011;5655;48.744;9.162;2023-11-19T00:01:27;5.13;;;3.90;;
11197;SDS011;5655;48.744;9.162;2023-11-19T00:03:52;6.53;;;3.80;;
11197;SDS011;5655;48.744;9.162;2023-11-19T00:06:18;8.63;;;4.63;;
11197;SDS011;5655;48.744;9.162;2023-11-19T00:08:43;7.65;;;3.92;;
11197;SDS011;5655;48.744;9.162;2023-11-19T00:11:09;5.32;;;3.80;;
11197;SDS011;5655;48.744;9.162;2023-11-19T00:13:34;6.03;;;3.90;;
11197;SDS011;5655;48.744;9.162;2023-11-19T00:15:59;5.75;;;3.80;;
11197;SDS011;5655;48.744;9.162;2023-11-19T00:18:25;6.78;;;4.18;;
11197;SDS011;5655;48.744;9.162;2023-11-19T00:20:50;7.70;;;4.30;;
11197;SDS011;5655;48.744;9.162;2023-11-19T00:23:15;8.27;;;4.70;;
11197;SDS011;5655;48.744;9.162;2023-11-19T00:25:41;5.35;;;3.97;;
11197;SDS011;5655;48.744;9.162;2023-11-19T00:28:06;8.90;;;4.97;;
11197;SDS011;5655;48.744;9.162;2023-11-19T00:30:31;7.40;;;4.93;;
11197;SDS011;5655;48.744;9.162;2023-11-19T00:32:57;8.25;;;5.13;;
11197;SDS011;5655;48.744;9.162;2023-11-19T00:35:22;6.80;;;4.82;;
11197;SDS011;5655;48.744;9.162;2023-11-19T00:37:48;7.63;;;5.05;;
11197;SDS011;5655;48.744;9.162;2023-11-19T00:40:14;8.15;;;4.80;;
11197;SDS011;5655;48.744;9.162;2023-11-19T00:42:41;7.75;;;4.97;;
11197;SDS011;5655;48.744;9.162;2023-11-19T00:45:06;7.88;;;4.68;;
11197;SDS011;5655;48.744;9.162;2023-11-19T00:47:35;6.72;;;4.22;;
11197;SDS011;5655;48.744;9.162;2023-11-19T00:50:01;5.45;;;3.92;;
11197;SDS011;5655;48.744;9.162;2023-11-19T00:52:27;7.00;;;4.38;;
11197;SDS011;5655;48.744;9.162;2023-11-19T00:54:52;4.95;;;3.65;;
11197;SDS011;5655;48.744;9.162;2023-11-19T00:57:17;5.93;;;4.22;;
11197;SDS011;5655;48.744;9.162;2023-11-19T00:59:43;5.60;;;3.97;;
11197;SDS011;5655;48.744;9.162;2023-11-19T01:02:08;7.00;;;3.38;;
11197;SDS011;5655;48.744;9.162;2023-11-19T01:04:34;5.47;;;3.25;;
11197;SDS011;5655;48.744;9.162;2023-11-19T01:07:01;4.30;;;2.60;;
11197;SDS011;5655;48.744;9.162;2023-11-19T01:09:31;5.13;;;3.13;;
11197;SDS011;5655;48.744;9.162;2023-11-19T01:12:01;7.20;;;3.42;;
11197;SDS011;5655;48.744;9.162;2023-11-19T01:14:27;3.58;;;2.60;;
11197;SDS011;5655;48.744;9.162;2023-11-19T01:16:53;3.53;;;2.95;;
11197;SDS011;5655;48.744;9.162;2023-11-19T01:19:21;6.25;;;3.05;;
11197;SDS011;5655;48.744;9.162;2023-11-19T01:21:47;3.15;;;1.95;;
11197;SDS011;5655;48.744;9.162;2023-11-19T01:24:12;3.47;;;1.95;;
11197;SDS011;5655;48.744;9.162;2023-11-19T01:26:39;2.38;;;1.60;;
11197;SDS011;5655;48.744;9.162;2023-11-19T01:29:10;1.83;;;1.67;;
11197;SDS011;5655;48.744;9.162;2023-11-19T01:31:35;1.25;;;1.10;;
11197;SDS011;5655;48.744;9.162;2023-11-19T01:34:02;1.30;;;1.00;;
11197;SDS011;5655;48.744;9.162;2023-11-19T01:36:27;1.50;;;1.10;;
11197;SDS011;5655;48.744;9.162;2023-11-19T01:38:53;1.13;;;1.00;;
11197;SDS011;5655;48.744;9.162;2023-11-19T01:41:18;1.00;;;0.90;;
11197;SDS011;5655;48.744;9.162;2023-11-19T01:43:43;2.28;;;1.35;;
11197;SDS011;5655;48.744;9.162;2023-11-19T01:46:12;1.20;;;1.00;;
11197;SDS011;5655;48.744;9.162;2023-11-19T01:48:39;1.15;;;0.80;;
11197;SDS011;5655;48.744;9.162;2023-11-19T01:51:09;1.00;;;0.82;;
11197;SDS011;5655;48.744;9.162;2023-11-19T01:53:35;1.10;;;1.00;;
11197;SDS011;5655;48.744;9.162;2023-11-19T01:56:03;0.88;;;0.80;;
11197;SDS011;5655;48.744;9.162;2023-11-19T01:58:29;1.58;;;0.90;;
11197;SDS011;5655;48.744;9.162;2023-11-19T02:00:56;0.95;;;0.77;;
11197;SDS011;5655;48.744;9.162;2023-11-19T02:03:22;0.60;;;0.60;;
11197;SDS011;5655;48.744;9.162;2023-11-19T02:05:50;0.63;;;0.50;;
11197;SDS011;5655;48.744;9.162;2023-11-19T02:08:18;0.88;;;0.70;;
11197;SDS011;5655;48.744;9.162;2023-11-19T02:10:43;1.20;;;0.50;;
11197;SDS011;5655;48.744;9.162;2023-11-19T02:13:08;0.85;;;0.52;;
11197;SDS011;5655;48.744;9.162;2023-11-19T02:15:35;0.70;;;0.47;;
11197;SDS011;5655;48.744;9.162;2023-11-19T02:20:49;0.68;;;0.50;;
11197;SDS011;5655;48.744;9.162;2023-11-19T02:23:15;0.40;;;0.35;;
11197;SDS011;5655;48.744;9.162;2023-11-19T02:25:40;0.20;;;0.20;;
11197;SDS011;5655;48.744;9.162;2023-11-19T02:28:06;1.05;;;0.50;;
11197;SDS011;5655;48.744;9.162;2023-11-19T02:30:32;0.80;;;0.50;;
11197;SDS011;5655;48.744;9.162;2023-11-19T02:33:01;0.57;;;0.45;;
11197;SDS011;5655;48.744;9.162;2023-11-19T02:35:30;1.05;;;0.40;;
11197;SDS011;5655;48.744;9.162;2023-11-19T02:37:57;0.85;;;0.40;;
11197;SDS011;5655;48.744;9.162;2023-11-19T02:40:28;0.65;;;0.40;;
11197;SDS011;5655;48.744;9.162;2023-11-19T02:42:54;0.50;;;0.50;;
11197;SDS011;5655;48.744;9.162;2023-11-19T02:45:21;0.63;;;0.30;;
11197;SDS011;5655;48.744;9.162;2023-11-19T02:47:47;0.43;;;0.43;;
11197;SDS011;5655;48.744;9.162;2023-11-19T02:50:13;0.43;;;0.40;;
11197;SDS011;5655;48.744;9.162;2023-11-19T02:52:41;0.60;;;0.30;;
11197;SDS011;5655;48.744;9.162;2023-11-19T02:55:08;2.72;;;0.95;;
11197;SDS011;5655;48.744;9.162;2023-11-19T02:57:40;1.45;;;0.30;;
11197;SDS011;5655;48.744;9.162;2023-11-19T03:00:16;0.30;;;0.30;;
11197;SDS011;5655;48.744;9.162;2023-11-19T03:02:43;0.20;;;0.20;;
11197;SDS011;5655;48.744;9.162;2023-11-19T03:05:14;0.93;;;0.32;;
11197;SDS011;5655;48.744;9.162;2023-11-19T03:07:41;0.30;;;0.30;;
11197;SDS011;5655;48.744;9.162;2023-11-19T03:10:08;0.50;;;0.30;;
11197;SDS011;5655;48.744;9.162;2023-11-19T03:12:37;0.32;;;0.30;;
11197;SDS011;5655;48.744;9.162;2023-11-19T03:15:02;0.55;;;0.40;;
11197;SDS011;5655;48.744;9.162;2023-11-19T03:17:28;2.67;;;0.77;;
11197;SDS011;5655;48.744;9.162;2023-11-19T03:19:53;1.15;;;0.43;;
11197;SDS011;5655;48.744;9.162;2023-11-19T03:22:18;0.30;;;0.30;;
11197;SDS011;5655;48.744;9.162;2023-11-19T03:24:44;0.60;;;0.40;;
11197;SDS011;5655;48.744;9.162;2023-11-19T03:27:09;0.40;;;0.40;;
11197;SDS011;5655;48.744;9.162;2023-11-19T03:29:35;2.75;;;0.40;;
11197;SDS011;5655;48.744;9.162;2023-11-19T03:32:00;0.30;;;0.30;;
11197;SDS011;5655;48.744;9.162;2023-11-19T03:34:25;0.63;;;0.40;;
11197;SDS011;5655;48.744;9.162;2023-11-19T03:36:51;0.73;;;0.73;;
11197;SDS011;5655;48.744;9.162;2023-11-19T03:39:16;0.63;;;0.40;;
11197;SDS011;5655;48.744;9.162;2023-11-19T03:41:41;0.85;;;0.40;;
11197;SDS011;5655;48.744;9.162;2023-11-19T03:44:12;0.60;;;0.52;;
11197;SDS011;5655;48.744;9.162;2023-11-19T03:46:37;1.02;;;0.50;;
11197;SDS011;5655;48.744;9.162;2023-11-19T03:49:02;0.35;;;0.28;;
11197;SDS011;5655;48.744;9.162;2023-11-19T03:51:29;3.15;;;0.40;;
11197;SDS011;5655;48.744;9.162;2023-11-19T03:53:54;0.98;;;0.43;;
11197;SDS011;5655;48.744;9.162;2023-11-19T03:56:19;0.35;;;0.35;;
11197;SDS011;5655;48.744;9.162;2023-11-19T03:58:46;0.47;;;0.47;;
11197;SDS011;5655;48.744;9.162;2023-11-19T04:01:11;0.55;;;0.25;;
11197;SDS011;5655;48.744;9.162;2023-11-19T04:03:38;0.40;;;0.40;;
11197;SDS011;5655;48.744;9.162;2023-11-19T04:06:03;0.68;;;0.28;;
11197;SDS011;5655;48.744;9.162;2023-11-19T04:08:29;0.32;;;0.30;;
11197;SDS011;5655;48.744;9.162;2023-11-19T04:10:55;0.30;;;0.30;;
11197;SDS011;5655;48.744;9.162;2023-11-19T04:13:20;0.30;;;0.30;;
11197;SDS011;5655;48.744;9.162;2023-11-19T04:15:45;1.17;;;0.50;;
11197;SDS011;5655;48.744;9.162;2023-11-19T04:18:11;1.95;;;0.30;;
11197;SDS011;5655;48.744;9.162;2023-11-19T04:20:36;0.20;;;0.20;;
11197;SDS011;5655;48.744;9.162;2023-11-19T04:23:01;3.58;;;0.45;;
11197;SDS011;5655;48.744;9.162;2023-11-19T04:25:27;0.30;;;0.30;;
11197;SDS011;5655;48.744;9.162;2023-11-19T04:27:52;0.20;;;0.20;;
11197;SDS011;5655;48.744;9.162;2023-11-19T04:30:18;1.58;;;0.30;;
11197;SDS011;5655;48.744;9.162;2023-11-19T04:32:43;0.60;;;0.20;;
11197;SDS011;5655;48.744;9.162;2023-11-19T04:35:09;0.55;;;0.40;;
11197;SDS011;5655;48.744;9.162;2023-11-19T04:37:35;0.70;;;0.30;;
11197;SDS011;5655;48.744;9.162;2023-11-19T04:40:01;0.73;;;0.30;;
11197;SDS011;5655;48.744;9.162;2023-11-19T04:42:26;0.30;;;0.22;;
11197;SDS011;5655;48.744;9.162;2023-11-19T04:44:52;0.40;;;0.30;;
11197;SDS011;5655;48.744;9.162;2023-11-19T04:47:17;0.50;;;0.30;;
11197;SDS011;5655;48.744;9.162;2023-11-19T04:49:42;0.20;;;0.20;;
11197;SDS011;5655;48.744;9.162;2023-11-19T04:52:08;0.40;;;0.22;;
11197;SDS011;5655;48.744;9.162;2023-11-19T04:54:33;0.90;;;0.13;;
11197;SDS011;5655;48.744;9.162;2023-11-19T04:56:59;0.22;;;0.22;;
11197;SDS011;5655;48.744;9.162;2023-11-19T04:59:24;0.17;;;0.17;;
11197;SDS011;5655;48.744;9.162;2023-11-19T05:01:49;0.50;;;0.32;;
11197;SDS011;5655;48.744;9.162;2023-11-19T05:04:15;0.20;;;0.20;;
11197;SDS011;5655;48.744;9.162;2023-11-19T05:06:41;0.60;;;0.28;;
11197;SDS011;5655;48.744;9.162;2023-11-19T05:09:06;0.43;;;0.30;;
11197;SDS011;5655;48.744;9.162;2023-11-19T05:11:34;0.20;;;0.20;;
11197;SDS011;5655;48.744;9.162;2023-11-19T05:14:02;0.28;;;0.28;;
11197;SDS011;5655;48.744;9.162;2023-11-19T05:16:28;0.30;;;0.25;;
11197;SDS011;5655;48.744;9.162;2023-11-19T05:18:54;0.85;;;0.30;;
11197;SDS011;5655;48.744;9.162;2023-11-19T05:21:19;0.20;;;0.20;;
11197;SDS011;5655;48.744;9.162;2023-11-19T05:23:44;0.47;;;0.35;;
11197;SDS011;5655;48.744;9.162;2023-11-19T05:26:16;0.22;;;0.22;;
11197;SDS011;5655;48.744;9.162;2023-11-19T05:28:42;0.20;;;0.20;;
11197;SDS011;5655;48.744;9.162;2023-11-19T05:31:08;0.43;;;0.22;;
11197;SDS011;5655;48.744;9.162;2023-11-19T05:33:33;0.40;;;0.40;;
11197;SDS011;5655;48.744;9.162;2023-11-19T05:35:59;0.30;;;0.30;;
11197;SDS011;5655;48.744;9.162;2023-11-19T05:38:24;1.02;;;0.40;;
11197;SDS011;5655;48.744;9.162;2023-11-19T05:40:49;0.93;;;0.45;;
11197;SDS011;5655;48.744;9.162;2023-11-19T05:43:15;0.25;;;0.20;;
11197;SDS011;5655;48.744;9.162;2023-11-19T05:45:41;0.40;;;0.40;;
11197;SDS011;5655;48.744;9.162;2023-11-19T05:48:07;0.32;;;0.30;;
11197;SDS011;5655;48.744;9.162;2023-11-19T05:50:33;0.20;;;0.20;;
11197;SDS011;5655;48.744;9.162;2023-11-19T05:52:59;0.40;;;0.30;;
11197;SDS011;5655;48.744;9.162;2023-11-19T05:55:24;1.35;;;0.40;;
11197;SDS011;5655;48.744;9.162;2023-11-19T05:57:49;0.13;;;0.13;;
11197;SDS011;5655;48.744;9.162;2023-11-19T06:00:16;0.43;;;0.40;;
11197;SDS011;5655;48.744;9.162;2023-11-19T06:02:43;0.50;;;0.50;;
11197;SDS011;5655;48.744;9.162;2023-11-19T06:05:08;0.85;;;0.47;;
11197;SDS011;5655;48.744;9.162;2023-11-19T06:07:34;1.45;;;0.30;;
11197;SDS011;5655;48.744;9.162;2023-11-19T06:10:01;0.35;;;0.30;;
11197;SDS011;5655;48.744;9.162;2023-11-19T06:12:27;0.88;;;0.50;;
11197;SDS011;5655;48.744;9.162;2023-11-19T06:14:53;0.57;;;0.40;;
11197;SDS011;5655;48.744;9.162;2023-11-19T06:17:18;0.55;;;0.40;;
11197;SDS011;5655;48.744;9.162;2023-11-19T06:19:46;1.35;;;0.43;;
11197;SDS011;5655;48.744;9.162;2023-11-19T06:22:11;0.32;;;0.30;;
11197;SDS011;5655;48.744;9.162;2023-11-19T06:24:36;2.10;;;0.40;;
11197;SDS011;5655;48.744;9.162;2023-11-19T06:27:02;0.47;;;0.47;;
11197;SDS011;5655;48.744;9.162;2023-11-19T06:29:28;0.50;;;0.40;;
11197;SDS011;5655;48.744;9.162;2023-11-19T06:31:53;0.77;;;0.40;;
11197;SDS011;5655;48.744;9.162;2023-11-19T06:34:18;0.55;;;0.55;;
11197;SDS011;5655;48.744;9.162;2023-11-19T06:36:44;0.60;;;0.60;;
11197;SDS011;5655;48.744;9.162;2023-11-19T06:39:09;0.40;;;0.40;;
11197;SDS011;5655;48.744;9.162;2023-11-19T06:41:35;0.52;;;0.50;;
11197;SDS011;5655;48.744;9.162;2023-11-19T06:44:02;0.55;;;0.50;;
11197;SDS011;5655;48.744;9.162;2023-11-19T06:46:29;1.55;;;0.52;;
11197;SDS011;5655;48.744;9.162;2023-11-19T06:48:55;2.45;;;0.60;;
11197;SDS011;5655;48.744;9.162;2023-11-19T06:51:20;1.30;;;0.60;;
11197;SDS011;5655;48.744;9.162;2023-11-19T06:53:45;1.10;;;0.70;;
11197;SDS011;5655;48.744;9.162;2023-11-19T06:56:18;0.75;;;0.45;;
11197;SDS011;5655;48.744;9.162;2023-11-19T06:58:46;1.10;;;0.50;;
11197;SDS011;5655;48.744;9.162;2023-11-19T07:01:13;0.57;;;0.50;;
11197;SDS011;5655;48.744;9.162;2023-11-19T07:03:40;0.60;;;0.60;;
11197;SDS011;5655;48.744;9.162;2023-11-19T07:06:05;0.73;;;0.60;;
11197;SDS011;5655;48.744;9.162;2023-11-19T07:08:30;0.85;;;0.65;;
11197;SDS011;5655;48.744;9.162;2023-11-19T07:10:56;1.90;;;0.70;;
11197;SDS011;5655;48.744;9.162;2023-11-19T07:13:21;0.80;;;0.70;;
11197;SDS011;5655;48.744;9.162;2023-11-19T07:15:46;0.77;;;0.77;;
11197;SDS011;5655;48.744;9.162;2023-11-19T07:18:12;1.38;;;0.68;;
11197;SDS011;5655;48.744;9.162;2023-11-19T07:20:37;0.70;;;0.70;;
11197;SDS011;5655;48.744;9.162;2023-11-19T07:23:03;1.05;;;0.80;;
11197;SDS011;5655;48.744;9.162;2023-11-19T07:25:28;0.63;;;0.60;;
11197;SDS011;5655;48.744;9.162;2023-11-19T07:27:54;1.90;;;0.85;;
11197;SDS011;5655;48.744;9.162;2023-11-19T07:30:19;0.85;;;0.70;;
11197;SDS011;5655;48.744;9.162;2023-11-19T07:32:44;1.48;;;0.88;;
11197;SDS011;5655;48.744;9.162;2023-11-19T07:35:10;1.17;;;0.52;;
11197;SDS011;5655;48.744;9.162;2023-11-19T07:37:35;1.30;;;0.75;;
11197;SDS011;5655;48.744;9.162;2023-11-19T07:40:00;1.45;;;0.70;;
11197;SDS011;5655;48.744;9.162;2023-11-19T07:42:26;1.10;;;0.80;;
11197;SDS011;5655;48.744;9.162;2023-11-19T07:44:51;1.77;;;0.68;;
11197;SDS011;5655;48.744;9.162;2023-11-19T07:47:16;0.85;;;0.50;;
11197;SDS011;5655;48.744;9.162;2023-11-19T07:49:42;0.60;;;0.60;;
11197;SDS011;5655;48.744;9.162;2023-11-19T07:52:09;0.80;;;0.70;;
11197;SDS011;5655;48.744;9.162;2023-11-19T07:54:34;0.60;;;0.60;;
11197;SDS011;5655;48.744;9.162;2023-11-19T07:56:59;0.50;;;0.50;;
11197;SDS011;5655;48.744;9.162;2023-11-19T07:59:25;0.47;;;0.47;;
11197;SDS011;5655;48.744;9.162;2023-11-19T08:01:50;0.63;;;0.50;;
11197;SDS011;5655;48.744;9.162;2023-11-19T08:04:15;0.88;;;0.50;;
11197;SDS011;5655;48.744;9.162;2023-11-19T08:06:41;0.60;;;0.50;;
11197;SDS011;5655;48.744;9.162;2023-11-19T08:09:06;0.50;;;0.50;;
11197;SDS011;5655;48.744;9.162;2023-11-19T08:11:33;0.95;;;0.50;;
11197;SDS011;5655;48.744;9.162;2023-11-19T08:13:58;0.40;;;0.40;;
11197;SDS011;5655;48.744;9.162;2023-11-19T08:16:24;0.88;;;0.60;;
11197;SDS011;5655;48.744;9.162;2023-11-19T08:18:49;0.77;;;0.57;;
11197;SDS011;5655;48.744;9.162;2023-11-19T08:21:14;0.80;;;0.60;;
11197;SDS011;5655;48.744;9.162;2023-11-19T08:23:40;0.65;;;0.55;;
11197;SDS011;5655;48.744;9.162;2023-11-19T08:26:05;2.63;;;0.70;;
11197;SDS011;5655;48.744;9.162;2023-11-19T08:28:31;0.65;;;0.50;;
11197;SDS011;5655;48.744;9.162;2023-11-19T08:30:56;0.40;;;0.40;;
11197;SDS011;5655;48.744;9.162;2023-11-19T08:33:22;0.38;;;0.35;;
11197;SDS011;5655;48.744;9.162;2023-11-19T08:35:47;0.57;;;0.57;;
11197;SDS011;5655;48.744;9.162;2023-11-19T08:38:13;0.73;;;0.52;;
11197;SDS011;5655;48.744;9.162;2023-11-19T08:40:38;2.85;;;0.73;;
11197;SDS011;5655;48.744;9.162;2023-11-19T08:43:03;0.63;;;0.50;;
11197;SDS011;5655;48.744;9.162;2023-11-19T08:45:29;0.60;;;0.60;;
11197;SDS011;5655;48.744;9.162;2023-11-19T08:47:55;0.63;;;0.60;;
11197;SDS011;5655;48.744;9.162;2023-11-19T08:50:20;0.35;;;0.30;;
11197;SDS011;5655;48.744;9.162;2023-11-19T08:52:46;0.28;;;0.28;;
11197;SDS011;5655;48.744;9.162;2023-11-19T08:55:11;0.40;;;0.40;;
11197;SDS011;5655;48.744;9.162;2023-11-19T08:57:38;1.15;;;0.65;;
11197;SDS011;5655;48.744;9.162;2023-11-19T09:00:04;1.00;;;0.80;;
11197;SDS011;5655;48.744;9.162;2023-11-19T09:02:33;0.82;;;0.57;;
11197;SDS011;5655;48.744;9.162;2023-11-19T09:04:59;0.55;;;0.40;;
11197;SDS011;5655;48.744;9.162;2023-11-19T09:07:24;1.48;;;0.45;;
11197;SDS011;5655;48.744;9.162;2023-11-19T09:09:49;0.75;;;0.43;;
11197;SDS011;5655;48.744;9.162;2023-11-19T09:12:15;0.88;;;0.47;;
11197;SDS011;5655;48.744;9.162;2023-11-19T09:14:40;1.25;;;0.50;;
11197;SDS011;5655;48.744;9.162;2023-11-19T09:17:06;1.88;;;0.50;;
11197;SDS011;5655;48.744;9.162;2023-11-19T09:19:32;0.93;;;0.50;;
11197;SDS011;5655;48.744;9.162;2023-11-19T09:21:58;1.55;;;1.00;;
11197;SDS011;5655;48.744;9.162;2023-11-19T09:24:23;1.90;;;0.63;;
11197;SDS011;5655;48.744;9.162;2023-11-19T09:26:48;2.47;;;0.52;;
11197;SDS011;5655;48.744;9.162;2023-11-19T09:29:14;2.40;;;0.70;;
11197;SDS011;5655;48.744;9.162;2023-11-19T09:31:39;0.95;;;0.60;;
11197;SDS011;5655;48.744;9.162;2023-11-19T09:34:05;1.60;;;0.60;;
11197;SDS011;5655;48.744;9.162;2023-11-19T09:36:30;0.85;;;0.50;;
11197;SDS011;5655;48.744;9.162;2023-11-19T09:38:56;1.63;;;0.90;;
11197;SDS011;5655;48.744;9.162;2023-11-19T09:41:21;0.80;;;0.60;;
11197;SDS011;5655;48.744;9.162;2023-11-19T09:43:48;3.80;;;0.73;;
11197;SDS011;5655;48.744;9.162;2023-11-19T09:46:13;0.93;;;0.60;;
11197;SDS011;5655;48.744;9.162;2023-11-19T09:48:41;5.18;;;0.85;;
11197;SDS011;5655;48.744;9.162;2023-11-19T09:51:08;0.88;;;0.70;;
11197;SDS011;5655;48.744;9.162;2023-11-19T09:53:34;0.90;;;0.70;;
11197;SDS011;5655;48.744;9.162;2023-11-19T09:56:04;2.75;;;0.70;;
11197;SDS011;5655;48.744;9.162;2023-11-19T09:58:30;0.80;;;0.50;;
11197;SDS011;5655;48.744;9.162;2023-11-19T10:00:58;1.83;;;0.60;;
11197;SDS011;5655;48.744;9.162;2023-11-19T10:03:24;0.88;;;0.60;;
11197;SDS011;5655;48.744;9.162;2023-11-19T10:05:51;2.30;;;1.42;;
11197;SDS011;5655;48.744;9.162;2023-11-19T10:08:18;1.70;;;0.70;;
11197;SDS011;5655;48.744;9.162;2023-11-19T10:10:43;2.13;;;1.10;;
11197;SDS011;5655;48.744;9.162;2023-11-19T10:13:09;2.33;;;0.80;;
11197;SDS011;5655;48.744;9.162;2023-11-19T10:15:35;1.60;;;0.90;;
11197;SDS011;5655;48.744;9.162;2023-11-19T10:18:02;2.28;;;0.60;;
11197;SDS011;5655;48.744;9.162;2023-11-19T10:20:34;0.90;;;0.60;;
11197;SDS011;5655;48.744;9.162;2023-11-19T10:23:00;0.50;;;0.40;;
11197;SDS011;5655;48.744;9.162;2023-11-19T10:25:26;0.70;;;0.55;;
11197;SDS011;5655;48.744;9.162;2023-11-19T10:27:53;1.85;;;0.50;;
11197;SDS011;5655;48.744;9.162;2023-11-19T10:30:28;1.45;;;0.75;;
11197;SDS011;5655;48.744;9.162;2023-11-19T10:33:07;0.70;;;0.50;;
11197;SDS011;5655;48.744;9.162;2023-11-19T10:35:51;0.95;;;0.50;;
11197;SDS011;5655;48.744;9.162;2023-11-19T10:38:18;0.95;;;0.50;;
11197;SDS011;5655;48.744;9.162;2023-11-19T10:40:43;0.98;;;0.60;;
11197;SDS011;5655;48.744;9.162;2023-11-19T10:43:09;0.63;;;0.38;;
11197;SDS011;5655;48.744;9.162;2023-11-19T10:45:35;2.13;;;0.50;;
11197;SDS011;5655;48.744;9.162;2023-11-19T10:48:01;1.30;;;0.52;;
11197;SDS011;5655;48.744;9.162;2023-11-19T10:50:31;1.15;;;0.50;;
11197;SDS011;5655;48.744;9.162;2023-11-19T10:52:56;1.25;;;0.50;;
11197;SDS011;5655;48.744;9.162;2023-11-19T10:55:28;1.10;;;0.55;;
11197;SDS011;5655;48.744;9.162;2023-11-19T10:58:02;0.70;;;0.30;;
11197;SDS011;5655;48.744;9.162;2023-11-19T11:00:38;0.40;;;0.38;;
11197;SDS011;5655;48.744;9.162;2023-11-19T11:05:47;1.90;;;0.28;;
11197;SDS011;5655;48.744;9.162;2023-11-19T11:08:13;0.47;;;0.38;;
11197;SDS011;5655;48.744;9.162;2023-11-19T11:10:42;0.30;;;0.28;;
11197;SDS011;5655;48.744;9.162;2023-11-19T11:13:09;0.30;;;0.30;;
11197;SDS011;5655;48.744;9.162;2023-11-19T11:15:37;3.03;;;0.50;;
11197;SDS011;5655;48.744;9.162;2023-11-19T11:18:03;1.48;;;0.30;;
11197;SDS011;5655;48.744;9.162;2023-11-19T11:20:31;1.52;;;0.50;;
11197;SDS011;5655;48.744;9.162;2023-11-19T11:23:13;0.50;;;0.30;;
11197;SDS011;5655;48.744;9.162;2023-11-19T11:25:54;2.20;;;0.60;;
11197;SDS011;5655;48.744;9.162;2023-11-19T11:31:30;2.78;;;0.68;;
11197;SDS011;5655;48.744;9.162;2023-11-19T11:36:27;1.02;;;0.55;;
11197;SDS011;5655;48.744;9.162;2023-11-19T11:38:56;0.73;;;0.55;;
11197;SDS011;5655;48.744;9.162;2023-11-19T11:41:25;2.58;;;0.40;;
11197;SDS011;5655;48.744;9.162;2023-11-19T11:43:51;1.92;;;0.50;;
11197;SDS011;5655;48.744;9.162;2023-11-19T11:49:03;2.10;;;0.80;;
11197;SDS011;5655;48.744;9.162;2023-11-19T11:54:08;0.57;;;0.43;;
11197;SDS011;5655;48.744;9.162;2023-11-19T11:56:36;0.60;;;0.60;;
11197;SDS011;5655;48.744;9.162;2023-11-19T11:59:02;1.15;;;0.47;;
11197;SDS011;5655;48.744;9.162;2023-11-19T12:01:28;1.33;;;0.50;;
11197;SDS011;5655;48.744;9.162;2023-11-19T12:03:55;1.00;;;0.43;;
11197;SDS011;5655;48.744;9.162;2023-11-19T12:06:21;1.95;;;0.75;;
11197;SDS011;5655;48.744;9.162;2023-11-19T12:08:47;0.45;;;0.30;;
11197;SDS011;5655;48.744;9.162;2023-11-19T12:11:12;1.67;;;0.50;;
11197;SDS011;5655;48.744;9.162;2023-11-19T12:13:52;3.42;;;0.70;;
11197;SDS011;5655;48.744;9.162;2023-11-19T12:16:21;3.60;;;0.40;;
11197;SDS011;5655;48.744;9.162;2023-11-19T12:18:47;0.50;;;0.40;;
11197;SDS011;5655;48.744;9.162;2023-11-19T12:21:26;1.05;;;0.50;;
11197;SDS011;5655;48.744;9.162;2023-11-19T12:23:53;0.70;;;0.43;;
11197;SDS011;5655;48.744;9.162;2023-11-19T12:26:36;1.15;;;0.50;;
11197;SDS011;5655;48.744;9.162;2023-11-19T12:29:02;1.15;;;0.40;;
11197;SDS011;5655;48.744;9.162;2023-11-19T12:31:31;0.80;;;0.50;;
11197;SDS011;5655;48.744;9.162;2023-11-19T12:33:57;3.55;;;0.50;;
11197;SDS011;5655;48.744;9.162;2023-11-19T12:36:22;1.02;;;0.40;;
11197;SDS011;5655;48.744;9.162;2023-11-19T12:38:48;1.73;;;0.88;;
11197;SDS011;5655;48.744;9.162;2023-11-19T12:41:13;1.85;;;0.45;;
11197;SDS011;5655;48.744;9.162;2023-11-19T12:43:42;2.15;;;0.57;;
11197;SDS011;5655;48.744;9.162;2023-11-19T12:46:17;0.60;;;0.50;;
11197;SDS011;5655;48.744;9.162;2023-11-19T12:48:44;1.38;;;0.70;;
11197;SDS011;5655;48.744;9.162;2023-11-19T12:51:10;0.65;;;0.40;;
11197;SDS011;5655;48.744;9.162;2023-11-19T12:53:47;0.60;;;0.52;;
11197;SDS011;5655;48.744;9.162;2023-11-19T12:56:19;0.98;;;0.45;;
11197;SDS011;5655;48.744;9.162;2023-11-19T12:58:45;0.88;;;0.32;;
11197;SDS011;5655;48.744;9.162;2023-11-19T13:01:10;0.93;;;0.40;;
11197;SDS011;5655;48.744;9.162;2023-11-19T13:03:41;1.42;;;0.50;;
11197;SDS011;5655;48.744;9.162;2023-11-19T13:06:07;2.95;;;0.70;;
11197;SDS011;5655;48.744;9.162;2023-11-19T13:11:04;0.25;;;0.20;;
11197;SDS011;5655;48.744;9.162;2023-11-19T13:13:31;0.45;;;0.28;;
11197;SDS011;5655;48.744;9.162;2023-11-19T13:16:06;1.42;;;0.68;;
11197;SDS011;5655;48.744;9.162;2023-11-19T13:18:31;1.60;;;0.68;;
11197;SDS011;5655;48.744;9.162;2023-11-19T13:20:56;1.10;;;0.60;;
11197;SDS011;5655;48.744;9.162;2023-11-19T13:23:22;0.90;;;0.50;;
11197;SDS011;5655;48.744;9.162;2023-11-19T13:25:48;2.05;;;0.43;;
11197;SDS011;5655;48.744;9.162;2023-11-19T13:28:13;2.75;;;0.77;;
11197;SDS011;5655;48.744;9.162;2023-11-19T13:30:39;1.35;;;0.52;;
11197;SDS011;5655;48.744;9.162;2023-11-19T13:33:04;1.13;;;0.40;;
11197;SDS011;5655;48.744;9.162;2023-11-19T13:35:30;0.45;;;0.45;;
11197;SDS011;5655;48.744;9.162;2023-11-19T13:37:55;1.45;;;0.32;;
11197;SDS011;5655;48.744;9.162;2023-11-19T13:40:20;0.90;;;0.60;;
11197;SDS011;5655;48.744;9.162;2023-11-19T13:42:47;2.20;;;0.50;;
11197;SDS011;5655;48.744;9.162;2023-11-19T13:45:13;1.48;;;0.60;;
11197;SDS011;5655;48.744;9.162;2023-11-19T13:47:40;1.02;;;0.60;;
11197;SDS011;5655;48.744;9.162;2023-11-19T13:50:07;0.65;;;0.52;;
11197;SDS011;5655;48.744;9.162;2023-11-19T13:52:34;3.72;;;0.60;;
11197;SDS011;5655;48.744;9.162;2023-11-19T13:55:00;1.05;;;0.40;;
11197;SDS011;5655;48.744;9.162;2023-11-19T13:57:25;1.55;;;0.60;;
11197;SDS011;5655;48.744;9.162;2023-11-19T13:59:50;1.48;;;0.57;;
11197;SDS011;5655;48.744;9.162;2023-11-19T14:02:16;1.05;;;0.50;;
11197;SDS011;5655;48.744;9.162;2023-11-19T14:04:41;2.22;;;0.60;;
11197;SDS011;5655;48.744;9.162;2023-11-19T14:07:06;1.25;;;0.50;;
11197;SDS011;5655;48.744;9.162;2023-11-19T14:09:32;2.85;;;0.55;;
11197;SDS011;5655;48.744;9.162;2023-11-19T14:11:57;0.95;;;0.57;;
11197;SDS011;5655;48.744;9.162;2023-11-19T14:14:22;0.65;;;0.45;;
11197;SDS011;5655;48.744;9.162;2023-11-19T14:16:48;0.98;;;0.60;;
11197;SDS011;5655;48.744;9.162;2023-11-19T14:19:13;1.88;;;0.75;;
11197;SDS011;5655;48.744;9.162;2023-11-19T14:21:38;4.82;;;0.80;;
11197;SDS011;5655;48.744;9.162;2023-11-19T14:24:04;3.13;;;0.60;;
11197;SDS011;5655;48.744;9.162;2023-11-19T14:26:30;0.52;;;0.50;;
11197;SDS011;5655;48.744;9.162;2023-11-19T14:28:55;2.75;;;0.80;;
11197;SDS011;5655;48.744;9.162;2023-11-19T14:31:20;1.63;;;0.52;;
11197;SDS011;5655;48.744;9.162;2023-11-19T14:33:46;1.45;;;0.70;;
11197;SDS011;5655;48.744;9.162;2023-11-19T14:36:11;2.33;;;1.15;;
11197;SDS011;5655;48.744;9.162;2023-11-19T14:38:36;2.38;;;0.80;;
11197;SDS011;5655;48.744;9.162;2023-11-19T14:41:02;1.65;;;0.57;;
11197;SDS011;5655;48.744;9.162;2023-11-19T14:43:27;2.35;;;0.57;;
11197;SDS011;5655;48.744;9.162;2023-11-19T14:45:52;0.70;;;0.50;;
11197;SDS011;5655;48.744;9.162;2023-11-19T14:48:18;2.55;;;0.90;;
11197;SDS011;5655;48.744;9.162;2023-11-19T14:50:43;0.68;;;0.60;;
11197;SDS011;5655;48.744;9.162;2023-11-19T14:53:09;2.40;;;0.50;;
11197;SDS011;5655;48.744;9.162;2023-11-19T14:55:35;1.23;;;0.63;;
11197;SDS011;5655;48.744;9.162;2023-11-19T14:58:00;1.48;;;0.52;;
11197;SDS011;5655;48.744;9.162;2023-11-19T15:00:26;1.15;;;0.55;;
11197;SDS011;5655;48.744;9.162;2023-11-19T15:02:51;2.33;;;0.55;;
11197;SDS011;5655;48.744;9.162;2023-11-19T15:05:16;1.77;;;0.60;;
11197;SDS011;5655;48.744;9.162;2023-11-19T15:07:42;1.08;;;0.35;;
11197;SDS011;5655;48.744;9.162;2023-11-19T15:10:07;2.58;;;0.50;;
11197;SDS011;5655;48.744;9.162;2023-11-19T15:12:35;1.38;;;0.70;;
11197;SDS011;5655;48.744;9.162;2023-11-19T15:15:04;0.57;;;0.40;;